createdAt,value
2023-04-08T00:00:52.484Z,14.83
2023-04-08T00:03:40.943Z,14.23
2023-04-08T00:06:29.376Z,16.07
2023-04-08T00:09:19.040Z,16.70
2023-04-08T00:12:08.047Z,16.43
2023-04-08T00:14:56.293Z,18.20
2023-04-08T00:17:45.615Z,18.53
2023-04-08T00:20:33.827Z,18.30
2023-04-08T00:23:22.596Z,18.97
2023-04-08T00:26:12.089Z,19.93
2023-04-08T00:29:00.450Z,19.60
2023-04-08T00:31:48.886Z,20.67
2023-04-08T00:34:37.365Z,20.47
2023-04-08T00:37:26.152Z,22.00
2023-04-08T00:40:14.399Z,22.63
2023-04-08T00:43:03.948Z,23.37
2023-04-08T00:45:52.125Z,21.57
2023-04-08T00:48:41.987Z,23.13
2023-04-08T00:51:31.296Z,23.83
2023-04-08T00:54:19.743Z,23.27
2023-04-08T00:57:08.358Z,24.03
2023-04-08T01:00:01.233Z,27.50
2023-04-08T13:56:50.241Z,10.73
2023-04-08T14:37:36.627Z,13.10
2023-04-08T14:41:02.851Z,15.70
2023-04-08T14:44:26.614Z,13.00
2023-04-08T14:47:41.027Z,12.30
2023-04-08T14:50:54.372Z,13.10
2023-04-08T14:55:13.911Z,12.10
2023-04-08T15:08:45.594Z,11.97
2023-04-08T15:11:54.974Z,11.73
2023-04-08T15:14:51.050Z,12.67
2023-04-08T15:17:57.342Z,12.87
2023-04-08T15:21:20.854Z,13.00
2023-04-08T15:28:10.630Z,12.47
2023-04-08T15:31:29.471Z,12.07
2023-04-08T15:34:56.213Z,11.03
2023-04-08T15:38:24.617Z,11.20
2023-04-08T15:41:32.309Z,10.67
2023-04-08T15:44:56.714Z,15.97
2023-04-08T15:48:13.241Z,11.40
2023-04-08T15:51:41.035Z,11.10
2023-04-08T15:55:32.409Z,10.50
2023-04-08T15:59:00.787Z,11.23
2023-04-08T16:02:29.511Z,10.90
2023-04-08T19:07:34.997Z,28.17
